Time;durP1;ratioP1;P1;durP2;ratioP2;P2;SDS_P1;SDS_P2;PMS_P1;PMS_P2;Temp;Humidity;BMP_temperature;BMP_pressure;BME280_temperature;BME280_humidity;BME280_pressure;Samples;Min_cycle;Max_cycle;Signal;HPM_P1;HPM_P2
2022/11/14 00:02:22;;;;;;;47.15;31.08;;;13.60;96.10;;;;;;5054472;28;20186;-69
2022/11/14 00:05:45;;;;;;;49.35;31.50;;;13.50;96.50;;;;;;5054526;28;20051;-69
2022/11/14 00:09:08;;;;;;;47.95;30.20;;;13.60;96.30;;;;;;5054183;28;20044;-69
2022/11/14 00:12:30;;;;;;;44.33;30.67;;;13.60;96.30;;;;;;5054427;28;20052;-69
2022/11/14 00:15:53;;;;;;;46.22;30.88;;;13.70;96.50;;;;;;5054401;28;20060;-69
2022/11/14 00:19:16;;;;;;;47.30;31.63;;;13.60;96.50;;;;;;5054343;28;20052;-69
2022/11/14 00:22:39;;;;;;;46.42;30.42;;;13.60;96.50;;;;;;5054094;28;20040;-69
2022/11/14 00:26:01;;;;;;;45.83;31.38;;;13.60;96.40;;;;;;5054413;28;20052;-68
2022/11/14 00:29:23;;;;;;;48.60;30.33;;;13.50;96.70;;;;;;5054006;28;20052;-69
2022/11/14 00:32:46;;;;;;;46.42;30.92;;;13.50;96.60;;;;;;5053900;28;20041;-68
2022/11/14 00:36:08;;;;;;;44.95;30.35;;;13.50;96.70;;;;;;5054054;28;20052;-69
2022/11/14 00:39:31;;;;;;;49.65;32.08;;;13.40;96.60;;;;;;5054054;28;20040;-67
2022/11/14 00:42:54;;;;;;;43.22;28.80;;;13.40;96.90;;;;;;5053773;28;20044;-69
2022/11/14 00:46:17;;;;;;;46.25;30.77;;;13.30;96.90;;;;;;5053590;28;20047;-69
2022/11/14 00:49:39;;;;;;;45.63;31.00;;;13.30;97.10;;;;;;5053945;28;20056;-69
2022/11/14 00:53:02;;;;;;;45.80;29.65;;;13.20;96.90;;;;;;5053839;28;20048;-69
2022/11/14 00:56:25;;;;;;;39.97;28.33;;;13.20;97.00;;;;;;5053582;28;20047;-69
2022/11/14 00:59:48;;;;;;;42.70;29.35;;;13.20;97.00;;;;;;5052333;28;20044;-69
2022/11/14 01:03:10;;;;;;;45.33;28.98;;;13.30;97.00;;;;;;5053269;28;20531;-69
2022/11/14 01:06:33;;;;;;;41.10;29.20;;;13.30;96.90;;;;;;5053547;28;20052;-68
2022/11/14 01:09:56;;;;;;;41.47;29.33;;;13.40;96.90;;;;;;5053545;28;20503;-68
2022/11/14 01:13:19;;;;;;;44.22;29.42;;;13.40;97.00;;;;;;5053211;28;20044;-68
2022/11/14 01:16:42;;;;;;;41.95;28.30;;;13.30;96.70;;;;;;5053290;28;20052;-68
2022/11/14 01:20:05;;;;;;;45.75;29.90;;;13.30;97.00;;;;;;5053373;28;20048;-68
2022/11/14 01:23:28;;;;;;;45.28;29.00;;;13.30;96.70;;;;;;5052365;28;20048;-68
2022/11/14 01:26:53;;;;;;;41.58;29.10;;;13.30;96.90;;;;;;5053176;28;20519;-68
2022/11/14 01:30:15;;;;;;;39.53;27.15;;;13.30;96.90;;;;;;5053243;28;20071;-69
2022/11/14 01:33:38;;;;;;;41.47;27.83;;;13.20;97.00;;;;;;5052574;28;20040;-68
2022/11/14 01:37:01;;;;;;;43.13;27.85;;;13.00;97.10;;;;;;5053068;28;20052;-67
2022/11/14 01:40:24;;;;;;;39.28;27.73;;;13.00;97.50;;;;;;5052665;28;20040;-69
2022/11/14 01:43:47;;;;;;;41.25;28.23;;;13.10;97.60;;;;;;5052514;28;20123;-69
2022/11/14 01:47:11;;;;;;;33.78;25.27;;;13.10;97.40;;;;;;5052881;28;20504;-69
2022/11/14 01:50:34;;;;;;;34.70;22.90;;;13.20;97.50;;;;;;5052574;28;20064;-69
2022/11/14 01:53:59;;;;;;;34.20;22.95;;;13.10;97.70;;;;;;5052511;28;20031;-69
2022/11/14 01:57:27;;;;;;;35.75;25.08;;;13.20;97.50;;;;;;5052734;28;20044;-68
2022/11/14 02:00:49;;;;;;;38.67;24.92;;;13.20;97.40;;;;;;5052340;28;20044;-69
2022/11/14 02:04:21;;;;;;;34.70;23.67;;;13.30;97.70;;;;;;5052138;28;20056;-69
2022/11/14 02:07:44;;;;;;;33.17;24.20;;;13.30;97.50;;;;;;5052492;28;20385;-69
2022/11/14 02:11:10;;;;;;;34.38;23.67;;;13.40;97.50;;;;;;5052090;28;20048;-69
2022/11/14 02:14:35;;;;;;;36.10;23.20;;;13.40;97.60;;;;;;5052000;28;20048;-69
2022/11/14 02:17:59;;;;;;;31.55;22.70;;;13.40;97.60;;;;;;5051938;28;20044;-69
2022/11/14 02:21:22;;;;;;;23.77;16.63;;;13.50;97.50;;;;;;5052174;28;20036;-69
2022/11/14 02:24:45;;;;;;;26.52;19.15;;;13.40;97.50;;;;;;5051720;28;20052;-69
2022/11/14 02:28:09;;;;;;;17.25;11.52;;;13.50;97.10;;;;;;5051967;28;20511;-69
2022/11/14 02:31:32;;;;;;;16.23;12.25;;;13.70;96.60;;;;;;5051908;28;20036;-69
2022/11/14 02:34:55;;;;;;;14.30;11.15;;;13.80;96.30;;;;;;5051642;28;20040;-68
2022/11/14 02:38:17;;;;;;;16.67;12.80;;;13.90;96.40;;;;;;5051622;28;20048;-69
2022/11/14 02:41:40;;;;;;;11.93;7.88;;;14.00;95.90;;;;;;5051603;28;20519;-69
2022/11/14 02:45:04;;;;;;;15.20;10.52;;;14.10;95.80;;;;;;5051446;28;20052;-69
2022/11/14 02:48:26;;;;;;;11.38;8.45;;;14.10;95.50;;;;;;5051681;28;20056;-69
2022/11/14 02:51:49;;;;;;;5.80;5.20;;;14.30;95.30;;;;;;5051390;28;20545;-69
2022/11/14 02:55:12;;;;;;;9.80;7.30;;;14.40;94.70;;;;;;5051547;28;20608;-69
2022/11/14 02:58:35;;;;;;;9.57;7.15;;;14.50;94.60;;;;;;5051574;28;20051;-69
2022/11/14 03:01:57;;;;;;;17.13;8.43;;;14.60;94.20;;;;;;5051497;28;20036;-69
2022/11/14 03:05:19;;;;;;;11.00;8.50;;;14.60;94.00;;;;;;5051177;28;20048;-69
2022/11/14 03:08:42;;;;;;;13.85;8.35;;;14.70;94.30;;;;;;5051525;28;20055;-69
2022/11/14 03:12:05;;;;;;;9.77;7.43;;;14.60;94.30;;;;;;5050860;28;20384;-69
2022/11/14 03:15:28;;;;;;;13.48;8.85;;;14.60;94.10;;;;;;5051182;28;20036;-69
2022/11/14 03:18:50;;;;;;;12.27;8.50;;;15.70;94.70;;;;;;5051304;28;20047;-69
2022/11/14 03:22:13;;;;;;;13.40;9.40;;;14.60;94.40;;;;;;5050884;28;20036;-69
2022/11/14 03:25:36;;;;;;;13.35;9.02;;;14.60;94.40;;;;;;5051304;28;20059;-69
2022/11/14 03:28:59;;;;;;;14.63;9.85;;;14.60;94.40;;;;;;5051495;28;20044;-69
2022/11/14 03:32:21;;;;;;;14.73;10.32;;;14.60;94.60;;;;;;5050714;28;20044;-69
2022/11/14 03:35:44;;;;;;;18.38;13.15;;;14.60;94.70;;;;;;5050956;28;20040;-69
2022/11/14 03:39:08;;;;;;;20.02;13.55;;;14.50;95.00;;;;;;5051151;28;20500;-69
2022/11/14 03:42:34;;;;;;;16.13;12.82;;;14.40;95.10;;;;;;5050723;28;20044;-69
2022/11/14 03:46:01;;;;;;;19.92;12.95;;;14.40;95.20;;;;;;5050861;28;20071;-69
2022/11/14 03:49:24;;;;;;;19.10;13.05;;;14.30;95.30;;;;;;5050778;28;20060;-69
2022/11/14 03:52:48;;;;;;;21.65;14.43;;;14.30;95.90;;;;;;5051027;28;20040;-69
2022/11/14 03:56:11;;;;;;;18.95;14.95;;;14.30;96.50;;;;;;5050804;28;20056;-69
2022/11/14 03:59:33;;;;;;;20.08;14.95;;;14.20;96.60;;;;;;5050695;28;20048;-69
2022/11/14 04:02:56;;;;;;;21.67;15.30;;;14.20;96.70;;;;;;5050864;28;20040;-69
2022/11/14 04:06:19;;;;;;;24.27;15.63;;;14.20;96.80;;;;;;5050476;28;20060;-69
2022/11/14 04:09:43;;;;;;;24.30;16.17;;;14.10;97.10;;;;;;5050882;28;20048;-69
2022/11/14 04:13:06;;;;;;;27.42;16.38;;;14.10;97.50;;;;;;5050516;28;20048;-69
2022/11/14 04:16:29;;;;;;;23.23;14.77;;;14.10;97.40;;;;;;5050637;28;20496;-69
2022/11/14 04:19:51;;;;;;;20.35;14.95;;;14.10;97.50;;;;;;5050491;28;20048;-69
2022/11/14 04:23:13;;;;;;;19.02;13.68;;;14.00;97.30;;;;;;5050257;28;20076;-69
2022/11/14 04:26:36;;;;;;;19.90;13.20;;;14.00;96.70;;;;;;5050394;28;20048;-69
2022/11/14 04:29:58;;;;;;;23.38;13.25;;;14.00;96.70;;;;;;5050340;28;20048;-69
2022/11/14 04:33:21;;;;;;;18.23;13.63;;;14.10;97.00;;;;;;5051080;28;20041;-68
2022/11/14 04:36:44;;;;;;;23.40;14.73;;;14.10;97.30;;;;;;5054276;28;20051;-68
2022/11/14 04:40:07;;;;;;;24.45;14.38;;;14.10;98.30;;;;;;5053938;28;20044;-68
2022/11/14 04:43:29;;;;;;;16.17;12.00;;;14.10;98.90;;;;;;5053626;28;20048;-69
2022/11/14 04:46:52;;;;;;;13.55;7.20;;;14.10;98.50;;;;;;5053685;28;20068;-68
2022/11/14 04:50:15;;;;;;;15.13;10.10;;;14.10;97.80;;;;;;5053442;28;20499;-68
2022/11/14 04:53:37;;;;;;;9.85;5.78;;;14.20;97.40;;;;;;5053792;28;20040;-68
2022/11/14 04:56:59;;;;;;;9.65;5.97;;;14.30;97.20;;;;;;5053557;28;20044;-68
2022/11/14 05:00:23;;;;;;;8.25;5.28;;;14.40;97.30;;;;;;5053535;28;20040;-68
2022/11/14 05:03:47;;;;;;;9.27;4.45;;;14.50;97.50;;;;;;5053514;28;20530;-68
2022/11/14 05:07:09;;;;;;;6.10;4.95;;;14.60;98.00;;;;;;5053577;28;20048;-68
2022/11/14 05:10:31;;;;;;;8.77;5.38;;;14.60;98.10;;;;;;5053204;28;20044;-68
2022/11/14 05:13:54;;;;;;;10.48;7.22;;;14.60;98.30;;;;;;5053411;28;20044;-68
2022/11/14 05:17:16;;;;;;;10.55;7.65;;;14.60;98.60;;;;;;5053397;28;20044;-68
2022/11/14 05:20:38;;;;;;;11.70;8.77;;;14.50;98.80;;;;;;5053374;28;20068;-68
2022/11/14 05:24:01;;;;;;;10.68;7.40;;;14.40;99.10;;;;;;5052982;28;20056;-68
2022/11/14 05:27:23;;;;;;;7.18;6.28;;;14.30;99.30;;;;;;5052853;28;20036;-69
2022/11/14 05:30:46;;;;;;;14.80;8.07;;;14.20;99.40;;;;;;5051864;28;20099;-68
2022/11/14 05:34:08;;;;;;;14.93;8.73;;;13.90;99.40;;;;;;5052507;28;20064;-68
2022/11/14 05:37:32;;;;;;;11.38;8.07;;;14.00;99.60;;;;;;5052777;28;20048;-68
2022/11/14 05:40:55;;;;;;;9.70;7.20;;;14.00;99.60;;;;;;5052952;28;20043;-68
2022/11/14 05:44:17;;;;;;;10.55;7.07;;;13.90;99.70;;;;;;5052394;28;20059;-69
2022/11/14 05:47:39;;;;;;;8.80;7.13;;;14.00;99.70;;;;;;5052783;28;20048;-69
2022/11/14 05:51:03;;;;;;;7.55;6.22;;;14.00;99.80;;;;;;5052446;28;20080;-69
2022/11/14 05:54:25;;;;;;;9.98;6.97;;;14.00;99.70;;;;;;5052427;28;20044;-69
2022/11/14 05:57:48;;;;;;;9.10;6.55;;;14.00;99.60;;;;;;5052662;28;20032;-69
2022/11/14 06:01:15;;;;;;;7.43;6.10;;;14.00;99.60;;;;;;5052331;28;20045;-69
2022/11/14 06:04:38;;;;;;;6.55;4.88;;;14.00;98.70;;;;;;5052000;28;20063;-69
2022/11/14 06:08:01;;;;;;;5.72;4.45;;;14.00;98.90;;;;;;5052094;28;20440;-69
2022/11/14 06:11:23;;;;;;;6.25;4.20;;;14.10;98.70;;;;;;5051969;28;20503;-68
2022/11/14 06:14:46;;;;;;;5.28;4.40;;;14.20;98.70;;;;;;5050724;28;20036;-69
2022/11/14 06:18:09;;;;;;;6.75;4.30;;;14.20;98.60;;;;;;5052052;28;20040;-70
2022/11/14 06:21:32;;;;;;;8.02;4.80;;;14.20;98.90;;;;;;5051630;28;20047;-69
2022/11/14 06:24:54;;;;;;;8.75;5.38;;;14.10;99.00;;;;;;5050829;28;20052;-69
2022/11/14 06:28:17;;;;;;;7.00;5.57;;;14.10;99.40;;;;;;5052025;28;20048;-70
2022/11/14 06:31:39;;;;;;;7.55;6.57;;;14.10;99.60;;;;;;5051868;28;20068;-69
2022/11/14 06:35:03;;;;;;;7.18;5.65;;;13.90;99.80;;;;;;5051768;28;20048;-69
2022/11/14 06:38:26;;;;;;;6.53;4.85;;;14.00;99.90;;;;;;5051573;28;20048;-70
2022/11/14 06:41:49;;;;;;;11.73;5.38;;;14.00;99.90;;;;;;5051632;28;20052;-70
2022/11/14 06:45:12;;;;;;;5.88;4.53;;;14.10;99.90;;;;;;5050839;28;20504;-69
2022/11/14 06:48:34;;;;;;;7.78;5.10;;;14.20;99.90;;;;;;5051876;28;20464;-70
2022/11/14 06:51:57;;;;;;;10.70;5.40;;;14.20;99.90;;;;;;5051081;28;20071;-69
2022/11/14 06:55:20;;;;;;;10.48;5.53;;;14.20;99.90;;;;;;5051568;28;20048;-68
2022/11/14 06:58:45;;;;;;;9.57;5.25;;;14.20;99.90;;;;;;5050615;28;20055;-69
2022/11/14 07:02:11;;;;;;;8.55;4.68;;;14.20;99.90;;;;;;5051114;28;20040;-70
2022/11/14 07:05:34;;;;;;;6.65;4.93;;;14.30;99.90;;;;;;5050915;28;20052;-70
2022/11/14 07:08:58;;;;;;;8.70;4.50;;;14.40;99.90;;;;;;5051204;28;20112;-70
2022/11/14 07:12:21;;;;;;;4.97;4.13;;;14.60;99.90;;;;;;5050591;28;20055;-70
2022/11/14 07:15:53;;;;;;;6.25;4.40;;;14.60;99.90;;;;;;5050903;28;20043;-68
2022/11/14 07:19:16;;;;;;;6.10;5.00;;;14.70;99.90;;;;;;5051354;28;20044;-69
2022/11/14 07:22:39;;;;;;;8.15;4.57;;;14.80;99.90;;;;;;5050909;28;20051;-69
2022/11/14 07:26:06;;;;;;;10.30;4.88;;;14.90;99.90;;;;;;5050868;28;20056;-70
2022/11/14 07:29:29;;;;;;;7.78;5.30;;;14.90;99.90;;;;;;5050798;28;20052;-69
2022/11/14 07:32:56;;;;;;;7.82;4.75;;;15.00;99.90;;;;;;5050822;28;20051;-69
2022/11/14 07:36:19;;;;;;;17.55;4.85;;;15.10;99.90;;;;;;5050758;28;20052;-68
2022/11/14 07:39:41;;;;;;;5.30;4.25;;;15.20;99.90;;;;;;5050537;28;20048;-70
2022/11/14 07:43:04;;;;;;;5.40;3.83;;;15.40;99.90;;;;;;5050759;28;20044;-70
2022/11/14 07:46:26;;;;;;;6.88;4.20;;;15.50;99.90;;;;;;5050501;28;20052;-69
2022/11/14 07:49:49;;;;;;;5.47;4.30;;;15.60;99.90;;;;;;5050514;28;20048;-69
2022/11/14 07:53:12;;;;;;;6.38;4.15;;;15.70;99.90;;;;;;5050313;28;20056;-69
2022/11/14 07:56:34;;;;;;;8.30;4.55;;;15.80;99.70;;;;;;5050582;28;20040;-69
2022/11/14 07:59:57;;;;;;;5.65;4.53;;;15.90;99.60;;;;;;5050238;28;20052;-68
2022/11/14 08:03:19;;;;;;;5.47;3.78;;;15.80;99.40;;;;;;5050171;28;20064;-68
2022/11/14 08:06:42;;;;;;;5.85;3.53;;;15.80;99.40;;;;;;5050232;28;20052;-69
2022/11/14 08:10:05;;;;;;;3.97;3.33;;;15.90;99.40;;;;;;5053696;28;20503;-69
2022/11/14 08:13:28;;;;;;;4.97;3.30;;;15.90;99.20;;;;;;5054124;28;20048;-68
2022/11/14 08:16:51;;;;;;;9.52;4.20;;;15.90;99.30;;;;;;5053993;28;20044;-68
2022/11/14 08:20:14;;;;;;;7.20;3.90;;;16.00;99.50;;;;;;5053963;28;20048;-68
2022/11/14 08:23:37;;;;;;;5.45;3.50;;;16.00;99.70;;;;;;5054079;28;20044;-67
2022/11/14 08:27:00;;;;;;;6.32;4.10;;;16.00;99.50;;;;;;5053764;28;20048;-69
2022/11/14 08:30:23;;;;;;;6.22;3.78;;;16.10;99.50;;;;;;5053983;28;20051;-68
2022/11/14 08:33:45;;;;;;;9.50;3.47;;;16.10;99.60;;;;;;5053691;28;20051;-69
2022/11/14 08:37:08;;;;;;;7.45;4.22;;;16.10;99.70;;;;;;5053508;28;20044;-69
2022/11/14 08:40:30;;;;;;;6.90;3.90;;;16.20;99.80;;;;;;5053542;28;20056;-69
2022/11/14 08:43:53;;;;;;;8.15;3.53;;;16.20;99.80;;;;;;5052658;28;20040;-71
2022/11/14 08:47:15;;;;;;;4.82;3.13;;;16.20;99.60;;;;;;5053505;28;20511;-70
2022/11/14 08:50:38;;;;;;;3.90;3.47;;;16.30;99.30;;;;;;5052633;28;20044;-70
2022/11/14 08:54:00;;;;;;;10.50;3.30;;;16.30;99.20;;;;;;5053329;28;20044;-70
2022/11/14 08:57:23;;;;;;;4.50;3.50;;;16.30;99.20;;;;;;5053249;28;20547;-70
2022/11/14 09:00:46;;;;;;;5.80;3.50;;;16.30;99.30;;;;;;5053496;28;20108;-70
2022/11/14 09:04:08;;;;;;;13.20;4.10;;;16.30;99.30;;;;;;5053023;28;20051;-70
2022/11/14 09:07:31;;;;;;;5.75;3.40;;;16.30;99.40;;;;;;5053205;28;20056;-70
2022/11/14 09:10:54;;;;;;;5.30;3.13;;;16.30;99.30;;;;;;5053114;28;20048;-70
2022/11/14 09:14:17;;;;;;;8.65;2.88;;;16.40;99.20;;;;;;5053200;28;20044;-70
2022/11/14 09:17:40;;;;;;;3.80;2.80;;;16.40;99.10;;;;;;5053151;28;20147;-70
2022/11/14 09:21:06;;;;;;;5.72;3.38;;;16.40;99.20;;;;;;5051477;28;20043;-69
2022/11/14 09:24:28;;;;;;;4.47;3.00;;;16.40;99.20;;;;;;5053479;28;20044;-69
2022/11/14 09:27:52;;;;;;;4.75;3.00;;;16.40;99.20;;;;;;5052778;28;20059;-69
2022/11/14 09:31:14;;;;;;;3.80;3.10;;;16.40;99.10;;;;;;5052842;28;20044;-69
2022/11/14 09:34:41;;;;;;;4.53;2.83;;;16.40;99.10;;;;;;5053162;28;20388;-69
2022/11/14 09:38:09;;;;;;;4.88;3.10;;;16.40;99.10;;;;;;5053354;28;20046;-69
2022/11/14 09:41:53;;;;;;;3.67;2.90;;;16.40;98.90;;;;;;5052658;28;20051;-69
2022/11/14 09:45:17;;;;;;;4.47;2.75;;;16.50;99.00;;;;;;5052951;28;20052;-69
2022/11/14 09:48:39;;;;;;;3.40;2.55;;;16.50;98.90;;;;;;5052901;28;20052;-69
2022/11/14 09:52:25;;;;;;;5.63;2.95;;;16.50;98.80;;;;;;5052388;28;20044;-69
2022/11/14 09:55:47;;;;;;;3.70;2.30;;;16.50;98.80;;;;;;5052341;28;20048;-69
2022/11/14 09:59:11;;;;;;;5.55;2.60;;;16.50;98.90;;;;;;5052269;28;20044;-70
2022/11/14 10:02:53;;;;;;;4.97;2.38;;;16.40;98.90;;;;;;5051969;28;20052;-69
2022/11/14 10:06:25;;;;;;;3.60;2.72;;;16.40;98.90;;;;;;5052351;28;20060;-70
2022/11/14 10:09:48;;;;;;;6.47;3.13;;;16.50;98.90;;;;;;5052176;28;20051;-70
2022/11/14 10:13:28;;;;;;;4.50;3.03;;;16.40;99.00;;;;;;5052244;28;20050;-69
2022/11/14 10:17:03;;;;;;;7.60;4.40;;;16.50;99.00;;;;;;5052157;28;20044;-70
2022/11/14 10:20:46;;;;;;;5.32;3.30;;;16.50;98.90;;;;;;5051738;28;20044;-70
2022/11/14 10:24:36;;;;;;;7.35;2.75;;;16.50;99.00;;;;;;5051563;28;20048;-70
2022/11/14 10:28:05;;;;;;;5.97;3.00;;;16.50;99.10;;;;;;5051614;28;20048;-69
2022/11/14 10:31:27;;;;;;;5.72;2.65;;;16.60;99.30;;;;;;5051533;28;20044;-69
2022/11/14 10:35:08;;;;;;;7.28;2.90;;;16.60;99.40;;;;;;5051339;28;20048;-70
2022/11/14 10:38:30;;;;;;;5.68;2.42;;;16.50;99.50;;;;;;5051654;28;20048;-70
2022/11/14 10:41:58;;;;;;;4.03;2.50;;;16.60;99.60;;;;;;5051546;28;20507;-69
2022/11/14 10:45:38;;;;;;;3.25;2.20;;;16.60;99.70;;;;;;5051351;28;20044;-69
2022/11/14 10:49:11;;;;;;;5.03;2.57;;;16.60;99.60;;;;;;5051548;28;20052;-70
2022/11/14 10:52:41;;;;;;;8.05;2.92;;;16.60;99.60;;;;;;5051008;28;20480;-70
2022/11/14 10:56:04;;;;;;;4.72;2.40;;;16.60;99.50;;;;;;5049328;28;20044;-70
2022/11/14 10:59:28;;;;;;;5.28;3.13;;;16.70;99.50;;;;;;5050734;28;20043;-69
2022/11/14 11:02:57;;;;;;;4.43;2.58;;;16.70;99.50;;;;;;5050805;28;20044;-71
2022/11/14 11:06:27;;;;;;;5.68;2.70;;;16.70;99.50;;;;;;5050604;28;20052;-69
2022/11/14 11:13:54;;;;;;;7.82;2.92;;;16.80;99.70;;;;;;5050527;28;20044;-70
2022/11/14 11:17:20;;;;;;;10.27;3.03;;;16.90;99.70;;;;;;5050755;28;20393;-69
2022/11/14 11:20:42;;;;;;;3.53;2.38;;;16.90;99.60;;;;;;5050855;28;20040;-70
2022/11/14 11:24:05;;;;;;;6.43;2.72;;;16.90;99.60;;;;;;5051067;28;20052;-70
2022/11/14 11:27:29;;;;;;;5.90;3.28;;;16.90;99.40;;;;;;5050843;28;20044;-70
2022/11/14 11:30:55;;;;;;;8.68;3.17;;;17.00;99.50;;;;;;5050739;28;20052;-70
2022/11/14 11:34:26;;;;;;;5.22;3.30;;;17.10;99.40;;;;;;5050894;28;20048;-71
2022/11/14 11:37:58;;;;;;;8.38;3.10;;;17.10;99.40;;;;;;5049604;28;20052;-70
2022/11/14 11:41:30;;;;;;;4.38;2.17;;;17.10;99.30;;;;;;5050684;28;20059;-70
2022/11/14 11:44:58;;;;;;;3.33;2.15;;;17.30;99.20;;;;;;5053242;28;20048;-69
2022/11/14 11:48:37;;;;;;;7.90;3.88;;;17.40;98.90;;;;;;5054492;28;20044;-70
2022/11/14 11:52:11;;;;;;;6.22;2.55;;;17.40;99.00;;;;;;5054501;28;20508;-69
2022/11/14 11:55:40;;;;;;;9.38;2.53;;;17.50;98.70;;;;;;5054328;28;20044;-71
2022/11/14 11:59:19;;;;;;;4.05;2.40;;;17.50;98.30;;;;;;5054297;28;20048;-71
2022/11/14 12:02:47;;;;;;;7.97;2.50;;;17.50;98.20;;;;;;5054504;28;20507;-70
2022/11/14 12:06:24;;;;;;;7.90;2.70;;;17.50;98.30;;;;;;5054014;28;20128;-69
2022/11/14 12:09:49;;;;;;;6.95;2.50;;;17.60;98.10;;;;;;5054366;28;20040;-68
2022/11/14 12:13:33;;;;;;;9.32;2.28;;;17.80;98.10;;;;;;5053229;28;20040;-68
2022/11/14 12:17:31;;;;;;;5.93;1.90;;;17.80;97.70;;;;;;5053788;28;20052;-70
2022/11/14 12:21:29;;;;;;;6.78;2.22;;;17.90;97.50;;;;;;5054006;28;20047;-69
2022/11/14 12:25:13;;;;;;;4.10;1.80;;;18.00;97.00;;;;;;5054094;28;20064;-68
2022/11/14 12:28:48;;;;;;;2.95;1.63;;;18.00;97.00;;;;;;5054219;28;20142;-68
2022/11/14 12:32:16;;;;;;;6.55;2.55;;;18.00;97.00;;;;;;5053906;28;20052;-68
2022/11/14 12:35:50;;;;;;;2.50;1.52;;;18.00;97.10;;;;;;5054054;28;20036;-69
2022/11/14 12:39:28;;;;;;;4.22;2.00;;;17.90;96.90;;;;;;5053960;28;20056;-68
2022/11/14 12:42:52;;;;;;;5.32;2.13;;;18.00;97.10;;;;;;5052996;28;20503;-68
2022/11/14 12:46:15;;;;;;;5.10;2.42;;;18.00;97.10;;;;;;5053481;28;20076;-67
2022/11/14 12:49:47;;;;;;;5.40;2.28;;;18.10;97.20;;;;;;5053828;28;20044;-71
2022/11/14 12:53:38;;;;;;;6.30;1.98;;;18.30;97.20;;;;;;5052963;28;20056;-67
2022/11/14 12:57:08;;;;;;;2.10;1.60;;;18.40;96.80;;;;;;5053123;28;20048;-68
2022/11/14 13:00:59;;;;;;;3.35;1.50;;;18.40;96.50;;;;;;5053840;28;20770;-70
2022/11/14 13:04:28;;;;;;;4.32;1.83;;;18.40;96.40;;;;;;5053548;28;20044;-69
2022/11/14 13:08:43;;;;;;;5.57;1.88;;;18.40;96.50;;;;;;5053162;28;20056;-68
2022/11/14 13:21:44;;;;;;;4.75;1.67;;;18.40;96.50;;;;;;5053385;28;20104;-69
2022/11/14 13:24:18;;;;;;;6.80;2.17;;;18.60;96.30;;;;;;5052870;28;20500;-69
2022/11/14 13:27:41;;;;;;;8.68;2.20;;;18.60;96.40;;;;;;5053395;28;20209;-69
2022/11/14 13:31:16;;;;;;;5.55;2.20;;;18.70;96.50;;;;;;5052953;28;20591;-69
2022/11/14 13:35:01;;;;;;;6.80;2.22;;;18.60;96.40;;;;;;5053523;28;20040;-69
2022/11/14 13:38:59;;;;;;;3.97;1.90;;;18.60;96.80;;;;;;5053038;28;20500;-69
2022/11/14 13:42:49;;;;;;;6.93;2.10;;;18.60;97.00;;;;;;5052441;28;20044;-69
2022/11/14 13:46:33;;;;;;;4.57;1.83;;;18.60;97.10;;;;;;5052728;28;20052;-69
2022/11/14 13:50:28;;;;;;;4.15;1.73;;;18.50;97.30;;;;;;5051852;28;20036;-69
2022/11/14 13:53:51;;;;;;;8.90;2.00;;;18.50;97.10;;;;;;5051299;28;20052;-70
2022/11/14 13:57:32;;;;;;;7.60;2.38;;;18.40;97.10;;;;;;5052800;28;20515;-68
2022/11/14 14:01:29;;;;;;;5.57;2.63;;;18.40;97.30;;;;;;5052481;28;20126;-69
2022/11/14 14:05:12;;;;;;;5.85;1.90;;;18.30;97.40;;;;;;5052477;28;20040;-67
2022/11/14 14:09:08;;;;;;;12.35;2.67;;;18.30;97.60;;;;;;5052177;28;20503;-67
2022/11/14 14:13:06;;;;;;;3.70;2.40;;;18.20;97.70;;;;;;5051304;28;20044;-66
2022/11/14 14:17:03;;;;;;;8.98;2.80;;;18.20;97.80;;;;;;5052373;28;20499;-68
2022/11/14 14:20:28;;;;;;;8.32;2.90;;;18.10;97.80;;;;;;5052184;28;20044;-69
2022/11/14 14:24:32;;;;;;;5.45;2.30;;;18.10;97.90;;;;;;5052100;28;20056;-69
2022/11/14 14:28:30;;;;;;;10.13;3.78;;;18.20;98.10;;;;;;5050913;28;20055;-68
2022/11/14 14:31:52;;;;;;;11.45;4.57;;;18.30;98.40;;;;;;5051471;28;20052;-67
2022/11/14 14:35:30;;;;;;;6.57;3.05;;;18.30;98.60;;;;;;5051498;28;20036;-67
2022/11/14 14:39:21;;;;;;;5.80;1.75;;;18.30;98.70;;;;;;5050694;28;20512;-67
2022/11/14 14:42:46;;;;;;;6.25;1.52;;;18.40;98.50;;;;;;5051408;28;20044;-68
2022/11/14 14:46:09;;;;;;;5.47;1.63;;;18.40;98.20;;;;;;5051439;28;20060;-67
2022/11/14 14:49:36;;;;;;;5.15;1.67;;;18.40;97.90;;;;;;5051377;28;20507;-68
2022/11/14 14:53:01;;;;;;;4.22;1.48;;;18.40;97.30;;;;;;5051138;28;20211;-69
2022/11/14 14:56:25;;;;;;;7.15;1.17;;;18.30;97.00;;;;;;5051209;28;20063;-68
2022/11/14 14:59:58;;;;;;;2.33;1.08;;;18.30;97.00;;;;;;5051190;28;20508;-69
2022/11/14 15:03:23;;;;;;;3.70;1.00;;;18.30;97.00;;;;;;5051206;28;20040;-69
2022/11/14 15:06:47;;;;;;;3.88;0.90;;;18.20;96.80;;;;;;5050253;28;20052;-69
2022/11/14 15:10:23;;;;;;;4.70;1.40;;;18.20;96.80;;;;;;5051379;28;20086;-68
2022/11/14 15:13:49;;;;;;;4.22;1.30;;;18.20;96.80;;;;;;5051383;28;20044;-68
2022/11/14 15:17:11;;;;;;;5.75;1.30;;;18.10;96.80;;;;;;5050623;28;20428;-68
2022/11/14 15:20:34;;;;;;;6.70;1.80;;;18.10;96.90;;;;;;5051185;28;20056;-68
2022/11/14 15:24:14;;;;;;;4.03;1.50;;;18.00;97.00;;;;;;5050762;28;20044;-69
2022/11/14 15:27:59;;;;;;;7.88;1.70;;;18.00;97.00;;;;;;5051112;28;20130;-72
2022/11/14 15:31:23;;;;;;;6.13;1.63;;;18.00;97.20;;;;;;5050540;28;20052;-69
2022/11/14 15:35:26;;;;;;;6.47;1.80;;;17.90;97.20;;;;;;5050923;28;20389;-69
2022/11/14 15:39:04;;;;;;;5.53;2.17;;;17.80;97.30;;;;;;5050571;28;20036;-67
2022/11/14 15:42:30;;;;;;;16.95;3.42;;;17.80;97.50;;;;;;5050283;28;20052;-67
2022/11/14 15:45:55;;;;;;;9.70;3.35;;;17.80;97.90;;;;;;5050904;28;20488;-69
2022/11/14 15:49:25;;;;;;;8.68;3.22;;;17.70;98.20;;;;;;5050880;28;20389;-68
2022/11/14 15:52:54;;;;;;;9.05;2.72;;;17.70;98.20;;;;;;5050732;28;20056;-69
2022/11/14 15:56:17;;;;;;;10.77;4.07;;;17.60;98.40;;;;;;5050584;28;20037;-68
2022/11/14 15:59:39;;;;;;;17.75;4.80;;;17.60;98.60;;;;;;5050456;28;20036;-68
2022/11/14 16:03:02;;;;;;;18.13;6.75;;;17.50;98.90;;;;;;5050281;28;20044;-69
2022/11/14 16:06:25;;;;;;;20.90;8.82;;;17.50;99.10;;;;;;5050379;28;20132;-67
2022/11/14 16:09:48;;;;;;;23.67;8.23;;;17.40;99.20;;;;;;5050580;28;20060;-66
2022/11/14 16:13:11;;;;;;;19.95;6.75;;;17.40;99.40;;;;;;5050262;28;20052;-68
2022/11/14 16:16:33;;;;;;;14.68;6.13;;;17.30;99.60;;;;;;5050565;28;20398;-68
2022/11/14 16:19:57;;;;;;;35.10;7.40;;;17.30;99.80;;;;;;5051590;28;20048;-67
2022/11/14 16:23:20;;;;;;;21.58;7.85;;;17.30;99.80;;;;;;5050378;28;20590;-67
2022/11/14 16:26:43;;;;;;;25.70;8.07;;;17.20;99.90;;;;;;5050380;28;20400;-67
2022/11/14 16:30:06;;;;;;;25.05;9.13;;;17.20;99.90;;;;;;5052304;28;20040;-68
2022/11/14 16:33:29;;;;;;;27.13;8.90;;;17.10;99.90;;;;;;5053986;28;20044;-69
2022/11/14 16:37:01;;;;;;;29.95;9.93;;;17.00;99.90;;;;;;5054056;28;20052;-68
2022/11/14 16:40:26;;;;;;;28.88;9.38;;;16.90;99.90;;;;;;5053505;28;20044;-70
2022/11/14 16:43:52;;;;;;;30.92;11.52;;;16.90;99.90;;;;;;5053836;28;20064;-68
2022/11/14 16:47:18;;;;;;;36.22;12.63;;;16.80;99.90;;;;;;5054066;28;20052;-69
2022/11/14 16:50:40;;;;;;;26.50;12.98;;;16.80;99.90;;;;;;5053432;28;20052;-68
2022/11/14 16:54:02;;;;;;;39.50;14.82;;;16.70;99.90;;;;;;5052854;28;20392;-69
2022/11/14 16:57:25;;;;;;;47.72;18.00;;;16.70;99.90;;;;;;5053712;28;20409;-71
2022/11/14 17:00:48;;;;;;;36.60;17.63;;;16.60;99.90;;;;;;5053781;28;20048;-70
2022/11/14 17:04:10;;;;;;;42.95;17.25;;;16.60;99.90;;;;;;5053216;28;20059;-70
2022/11/14 17:07:33;;;;;;;45.90;19.27;;;16.60;99.90;;;;;;5053117;28;20520;-71
2022/11/14 17:10:55;;;;;;;42.00;17.77;;;16.50;99.90;;;;;;5053248;28;20044;-69
2022/11/14 17:14:18;;;;;;;43.85;19.90;;;16.50;99.90;;;;;;5053157;28;20052;-70
2022/11/14 17:17:45;;;;;;;41.17;19.40;;;16.40;99.90;;;;;;5053042;28;20040;-68
2022/11/14 17:21:09;;;;;;;39.88;17.77;;;16.40;99.90;;;;;;5052980;28;20048;-70
2022/11/14 17:24:32;;;;;;;44.63;15.70;;;16.30;99.90;;;;;;5053102;28;20534;-68
2022/11/14 17:27:54;;;;;;;33.20;14.65;;;16.30;99.90;;;;;;5053165;28;20072;-69
2022/11/14 17:31:17;;;;;;;29.48;12.40;;;16.30;99.90;;;;;;5053157;28;20504;-70
2022/11/14 17:34:40;;;;;;;33.40;14.63;;;16.30;99.90;;;;;;5052727;28;20044;-70
2022/11/14 17:38:02;;;;;;;30.55;11.82;;;16.20;99.90;;;;;;5051995;28;20500;-70
2022/11/14 17:41:25;;;;;;;30.02;10.88;;;16.10;99.90;;;;;;5051780;28;20392;-70
2022/11/14 17:44:47;;;;;;;26.95;10.38;;;16.10;99.90;;;;;;5052811;28;20130;-71
2022/11/14 17:48:12;;;;;;;29.67;10.77;;;;;;;;;;5052572;28;20055;-70
2022/11/14 17:51:34;;;;;;;22.75;12.43;;;;;;;;;;5050288;28;20063;-69
2022/11/14 17:54:57;;;;;;;29.40;14.95;;;;;;;;;;5052274;28;20060;-70
2022/11/14 17:58:20;;;;;;;29.73;14.20;;;;;;;;;;5052025;28;20044;-70
2022/11/14 18:01:42;;;;;;;25.10;13.55;;;;;;;;;;5052394;28;20040;-69